sensor_id;sensor_type;location;lat;lon;timestamp;temperature;humidity
69324;DHT22;56470;47.350;8.718;2022-08-04T00:01:31;22.54;64.83
69324;DHT22;56470;47.350;8.718;2022-08-04T00:04:00;22.43;64.97
69324;DHT22;56470;47.350;8.718;2022-08-04T00:09:16;22.06;66.18
69324;DHT22;56470;47.350;8.718;2022-08-04T00:11:44;22.10;66.10
69324;DHT22;56470;47.350;8.718;2022-08-04T00:14:14;22.02;66.54
69324;DHT22;56470;47.350;8.718;2022-08-04T00:16:41;22.04;66.24
69324;DHT22;56470;47.350;8.718;2022-08-04T00:19:16;22.09;66.26
69324;DHT22;56470;47.350;8.718;2022-08-04T00:21:47;22.16;66.28
69324;DHT22;56470;47.350;8.718;2022-08-04T00:24:15;22.09;65.78
69324;DHT22;56470;47.350;8.718;2022-08-04T00:26:42;22.06;66.61
69324;DHT22;56470;47.350;8.718;2022-08-04T00:29:09;22.01;66.77
69324;DHT22;56470;47.350;8.718;2022-08-04T00:31:35;21.94;66.04
69324;DHT22;56470;47.350;8.718;2022-08-04T00:34:00;21.85;65.80
69324;DHT22;56470;47.350;8.718;2022-08-04T00:36:27;21.81;66.17
69324;DHT22;56470;47.350;8.718;2022-08-04T00:38:54;21.75;66.43
69324;DHT22;56470;47.350;8.718;2022-08-04T00:41:34;21.68;67.29
69324;DHT22;56470;47.350;8.718;2022-08-04T01:02:36;21.74;66.10
69324;DHT22;56470;47.350;8.718;2022-08-04T01:05:37;21.82;66.23
69324;DHT22;56470;47.350;8.718;2022-08-04T01:08:45;21.75;66.67
69324;DHT22;56470;47.350;8.718;2022-08-04T01:11:22;21.73;66.83
69324;DHT22;56470;47.350;8.718;2022-08-04T01:16:23;21.53;67.49
69324;DHT22;56470;47.350;8.718;2022-08-04T01:27:01;21.37;66.75
69324;DHT22;56470;47.350;8.718;2022-08-04T01:29:33;21.33;66.71
69324;DHT22;56470;47.350;8.718;2022-08-04T01:32:06;21.32;66.00
69324;DHT22;56470;47.350;8.718;2022-08-04T01:34:42;21.35;66.21
69324;DHT22;56470;47.350;8.718;2022-08-04T01:39:43;21.35;66.38
69324;DHT22;56470;47.350;8.718;2022-08-04T01:42:17;21.30;66.60
69324;DHT22;56470;47.350;8.718;2022-08-04T01:44:46;21.29;65.70
69324;DHT22;56470;47.350;8.718;2022-08-04T01:47:13;21.27;64.66
69324;DHT22;56470;47.350;8.718;2022-08-04T01:49:43;21.22;66.94
69324;DHT22;56470;47.350;8.718;2022-08-04T01:52:09;21.18;66.79
69324;DHT22;56470;47.350;8.718;2022-08-04T01:54:37;21.20;66.99
69324;DHT22;56470;47.350;8.718;2022-08-04T01:57:05;21.20;66.61
69324;DHT22;56470;47.350;8.718;2022-08-04T01:59:30;21.19;67.14
69324;DHT22;56470;47.350;8.718;2022-08-04T02:01:56;21.26;67.24
69324;DHT22;56470;47.350;8.718;2022-08-04T02:04:21;21.35;66.98
69324;DHT22;56470;47.350;8.718;2022-08-04T02:10:00;21.36;66.56
69324;DHT22;56470;47.350;8.718;2022-08-04T02:15:25;21.26;67.43
69324;DHT22;56470;47.350;8.718;2022-08-04T02:20:46;21.43;67.08
69324;DHT22;56470;47.350;8.718;2022-08-04T02:23:24;21.27;67.63
69324;DHT22;56470;47.350;8.718;2022-08-04T02:25:57;21.23;67.84
69324;DHT22;56470;47.350;8.718;2022-08-04T02:29:19;21.15;67.93
69324;DHT22;56470;47.350;8.718;2022-08-04T02:31:56;21.03;68.25
69324;DHT22;56470;47.350;8.718;2022-08-04T02:34:45;20.81;69.16
69324;DHT22;56470;47.350;8.718;2022-08-04T02:37:15;20.80;69.00
69324;DHT22;56470;47.350;8.718;2022-08-04T02:39:43;20.84;69.02
69324;DHT22;56470;47.350;8.718;2022-08-04T02:42:10;20.81;69.19
69324;DHT22;56470;47.350;8.718;2022-08-04T02:44:38;20.92;68.98
69324;DHT22;56470;47.350;8.718;2022-08-04T02:47:05;20.85;68.83
69324;DHT22;56470;47.350;8.718;2022-08-04T02:49:35;20.85;69.27
69324;DHT22;56470;47.350;8.718;2022-08-04T02:52:01;20.73;69.40
69324;DHT22;56470;47.350;8.718;2022-08-04T02:54:28;20.70;69.74
69324;DHT22;56470;47.350;8.718;2022-08-04T02:56:56;20.60;69.85
69324;DHT22;56470;47.350;8.718;2022-08-04T02:59:25;20.67;69.70
69324;DHT22;56470;47.350;8.718;2022-08-04T03:01:54;20.64;69.75
69324;DHT22;56470;47.350;8.718;2022-08-04T03:04:29;20.65;69.96
69324;DHT22;56470;47.350;8.718;2022-08-04T03:07:28;20.70;69.70
69324;DHT22;56470;47.350;8.718;2022-08-04T03:15:28;20.90;69.53
69324;DHT22;56470;47.350;8.718;2022-08-04T03:18:33;21.16;68.55
69324;DHT22;56470;47.350;8.718;2022-08-04T03:21:34;21.30;68.11
69324;DHT22;56470;47.350;8.718;2022-08-04T03:27:11;20.88;69.88
69324;DHT22;56470;47.350;8.718;2022-08-04T03:29:59;20.81;70.10
69324;DHT22;56470;47.350;8.718;2022-08-04T03:32:38;20.64;70.70
69324;DHT22;56470;47.350;8.718;2022-08-04T03:35:33;20.43;71.21
69324;DHT22;56470;47.350;8.718;2022-08-04T04:01:09;20.68;70.86
69324;DHT22;56470;47.350;8.718;2022-08-04T04:17:51;20.54;71.42
69324;DHT22;56470;47.350;8.718;2022-08-04T04:20:37;20.56;71.53
69324;DHT22;56470;47.350;8.718;2022-08-04T04:23:20;20.43;71.87
69324;DHT22;56470;47.350;8.718;2022-08-04T04:27:17;20.41;71.40
69324;DHT22;56470;47.350;8.718;2022-08-04T04:32:00;20.74;70.68
69324;DHT22;56470;47.350;8.718;2022-08-04T04:34:38;20.84;70.48
69324;DHT22;56470;47.350;8.718;2022-08-04T04:45:28;20.99;69.76
69324;DHT22;56470;47.350;8.718;2022-08-04T04:53:11;21.68;67.59
69324;DHT22;56470;47.350;8.718;2022-08-04T04:55:42;22.05;65.96
69324;DHT22;56470;47.350;8.718;2022-08-04T04:58:14;22.49;64.58
69324;DHT22;56470;47.350;8.718;2022-08-04T05:01:10;23.04;62.84
69324;DHT22;56470;47.350;8.718;2022-08-04T05:04:15;23.43;61.89
69324;DHT22;56470;47.350;8.718;2022-08-04T05:10:02;23.98;60.54
69324;DHT22;56470;47.350;8.718;2022-08-04T05:15:29;24.80;57.77
69324;DHT22;56470;47.350;8.718;2022-08-04T05:17:56;25.22;56.56
69324;DHT22;56470;47.350;8.718;2022-08-04T05:20:34;25.61;55.61
69324;DHT22;56470;47.350;8.718;2022-08-04T05:23:28;25.80;54.97
69324;DHT22;56470;47.350;8.718;2022-08-04T05:25:58;26.39;53.50
69324;DHT22;56470;47.350;8.718;2022-08-04T05:28:38;27.05;52.11
69324;DHT22;56470;47.350;8.718;2022-08-04T05:31:11;27.76;50.04
69324;DHT22;56470;47.350;8.718;2022-08-04T05:36:16;27.76;50.29
69324;DHT22;56470;47.350;8.718;2022-08-04T05:38:42;27.50;51.26
69324;DHT22;56470;47.350;8.718;2022-08-04T05:41:09;27.43;51.41
69324;DHT22;56470;47.350;8.718;2022-08-04T05:43:37;27.59;51.31
69324;DHT22;56470;47.350;8.718;2022-08-04T05:46:04;27.74;51.88
69324;DHT22;56470;47.350;8.718;2022-08-04T05:48:31;27.90;51.78
69324;DHT22;56470;47.350;8.718;2022-08-04T05:50:57;28.25;51.31
69324;DHT22;56470;47.350;8.718;2022-08-04T05:53:23;28.23;50.85
69324;DHT22;56470;47.350;8.718;2022-08-04T05:55:50;28.61;49.81
69324;DHT22;56470;47.350;8.718;2022-08-04T05:58:16;28.40;49.88
69324;DHT22;56470;47.350;8.718;2022-08-04T06:00:42;28.59;50.43
69324;DHT22;56470;47.350;8.718;2022-08-04T06:03:09;29.23;48.58
69324;DHT22;56470;47.350;8.718;2022-08-04T06:05:35;29.02;48.88
69324;DHT22;56470;47.350;8.718;2022-08-04T06:08:01;29.07;48.40
69324;DHT22;56470;47.350;8.718;2022-08-04T06:10:28;29.07;48.54
69324;DHT22;56470;47.350;8.718;2022-08-04T06:12:58;29.23;47.70
69324;DHT22;56470;47.350;8.718;2022-08-04T06:15:26;29.82;45.97
69324;DHT22;56470;47.350;8.718;2022-08-04T06:17:55;29.84;46.11
69324;DHT22;56470;47.350;8.718;2022-08-04T06:20:25;30.77;44.22
69324;DHT22;56470;47.350;8.718;2022-08-04T06:22:55;30.90;44.10
69324;DHT22;56470;47.350;8.718;2022-08-04T06:25:24;30.92;43.70
69324;DHT22;56470;47.350;8.718;2022-08-04T06:27:51;30.98;43.86
69324;DHT22;56470;47.350;8.718;2022-08-04T06:30:18;30.83;43.79
69324;DHT22;56470;47.350;8.718;2022-08-04T06:32:45;30.95;44.10
69324;DHT22;56470;47.350;8.718;2022-08-04T06:35:15;31.95;41.87
69324;DHT22;56470;47.350;8.718;2022-08-04T06:37:42;32.20;41.21
69324;DHT22;56470;47.350;8.718;2022-08-04T06:40:09;32.53;40.76
69324;DHT22;56470;47.350;8.718;2022-08-04T06:42:36;32.33;41.24
69324;DHT22;56470;47.350;8.718;2022-08-04T06:45:01;32.10;42.21
69324;DHT22;56470;47.350;8.718;2022-08-04T06:47:29;31.59;43.26
69324;DHT22;56470;47.350;8.718;2022-08-04T06:49:55;31.62;43.33
69324;DHT22;56470;47.350;8.718;2022-08-04T06:52:21;32.69;40.78
69324;DHT22;56470;47.350;8.718;2022-08-04T06:54:48;32.79;40.26
69324;DHT22;56470;47.350;8.718;2022-08-04T06:57:17;33.44;39.03
69324;DHT22;56470;47.350;8.718;2022-08-04T06:59:43;33.49;38.87
69324;DHT22;56470;47.350;8.718;2022-08-04T07:02:14;32.52;40.31
69324;DHT22;56470;47.350;8.718;2022-08-04T07:04:42;32.57;40.26
69324;DHT22;56470;47.350;8.718;2022-08-04T07:07:08;33.03;39.35
69324;DHT22;56470;47.350;8.718;2022-08-04T07:09:34;33.79;38.30
69324;DHT22;56470;47.350;8.718;2022-08-04T07:12:00;33.98;37.88
69324;DHT22;56470;47.350;8.718;2022-08-04T07:14:26;34.68;36.81
69324;DHT22;56470;47.350;8.718;2022-08-04T07:16:53;34.59;37.00
69324;DHT22;56470;47.350;8.718;2022-08-04T07:19:18;34.83;36.28
69324;DHT22;56470;47.350;8.718;2022-08-04T07:21:44;35.30;35.43
69324;DHT22;56470;47.350;8.718;2022-08-04T07:24:09;34.42;36.55
69324;DHT22;56470;47.350;8.718;2022-08-04T07:26:34;34.40;36.50
69324;DHT22;56470;47.350;8.718;2022-08-04T07:29:00;34.90;35.71
69324;DHT22;56470;47.350;8.718;2022-08-04T07:31:26;34.47;36.60
69324;DHT22;56470;47.350;8.718;2022-08-04T07:33:52;34.37;37.01
69324;DHT22;56470;47.350;8.718;2022-08-04T07:36:19;34.59;36.58
69324;DHT22;56470;47.350;8.718;2022-08-04T07:38:44;34.66;35.80
69324;DHT22;56470;47.350;8.718;2022-08-04T07:41:10;34.62;36.14
69324;DHT22;56470;47.350;8.718;2022-08-04T07:43:36;34.63;36.47
69324;DHT22;56470;47.350;8.718;2022-08-04T07:46:03;34.96;36.16
69324;DHT22;56470;47.350;8.718;2022-08-04T07:48:28;34.68;36.83
69324;DHT22;56470;47.350;8.718;2022-08-04T07:50:54;35.07;35.76
69324;DHT22;56470;47.350;8.718;2022-08-04T07:53:20;35.11;36.03
69324;DHT22;56470;47.350;8.718;2022-08-04T07:55:46;35.02;36.53
69324;DHT22;56470;47.350;8.718;2022-08-04T07:58:11;34.86;36.33
69324;DHT22;56470;47.350;8.718;2022-08-04T08:00:37;34.24;37.65
69324;DHT22;56470;47.350;8.718;2022-08-04T08:03:03;33.27;39.58
69324;DHT22;56470;47.350;8.718;2022-08-04T08:05:29;33.92;38.30
69324;DHT22;56470;47.350;8.718;2022-08-04T08:07:55;34.53;37.44
69324;DHT22;56470;47.350;8.718;2022-08-04T08:10:22;35.20;35.84
69324;DHT22;56470;47.350;8.718;2022-08-04T08:12:48;35.94;34.74
69324;DHT22;56470;47.350;8.718;2022-08-04T08:15:14;35.73;35.09
69324;DHT22;56470;47.350;8.718;2022-08-04T08:17:40;35.71;34.84
69324;DHT22;56470;47.350;8.718;2022-08-04T08:20:06;35.94;34.03
69324;DHT22;56470;47.350;8.718;2022-08-04T08:22:31;34.62;36.02
69324;DHT22;56470;47.350;8.718;2022-08-04T08:24:57;35.82;34.56
69324;DHT22;56470;47.350;8.718;2022-08-04T08:27:23;35.92;34.38
69324;DHT22;56470;47.350;8.718;2022-08-04T08:29:48;36.23;33.29
69324;DHT22;56470;47.350;8.718;2022-08-04T08:32:14;36.16;33.41
69324;DHT22;56470;47.350;8.718;2022-08-04T08:34:40;36.38;32.86
69324;DHT22;56470;47.350;8.718;2022-08-04T08:37:18;35.94;33.88
69324;DHT22;56470;47.350;8.718;2022-08-04T08:39:58;36.11;34.06
69324;DHT22;56470;47.350;8.718;2022-08-04T08:42:43;36.17;33.85
69324;DHT22;56470;47.350;8.718;2022-08-04T08:45:34;36.07;33.81
69324;DHT22;56470;47.350;8.718;2022-08-04T08:48:43;36.69;32.80
69324;DHT22;56470;47.350;8.718;2022-08-04T08:59:38;36.71;33.16
69324;DHT22;56470;47.350;8.718;2022-08-04T09:02:43;37.35;32.25
69324;DHT22;56470;47.350;8.718;2022-08-04T09:05:42;37.23;31.66
69324;DHT22;56470;47.350;8.718;2022-08-04T09:10:51;38.37;29.11
69324;DHT22;56470;47.350;8.718;2022-08-04T09:13:25;38.96;28.16
69324;DHT22;56470;47.350;8.718;2022-08-04T09:21:40;38.48;29.07
69324;DHT22;56470;47.350;8.718;2022-08-04T09:24:28;38.55;29.09
69324;DHT22;56470;47.350;8.718;2022-08-04T09:27:08;38.34;29.38
69324;DHT22;56470;47.350;8.718;2022-08-04T09:32:29;38.74;28.39
69324;DHT22;56470;47.350;8.718;2022-08-04T09:38:15;39.72;27.30
69324;DHT22;56470;47.350;8.718;2022-08-04T09:40:58;39.54;26.92
69324;DHT22;56470;47.350;8.718;2022-08-04T09:46:20;39.56;26.66
69324;DHT22;56470;47.350;8.718;2022-08-04T09:48:52;39.92;26.44
69324;DHT22;56470;47.350;8.718;2022-08-04T09:51:42;38.99;27.41
69324;DHT22;56470;47.350;8.718;2022-08-04T10:00:12;39.43;26.84
69324;DHT22;56470;47.350;8.718;2022-08-04T10:02:44;38.05;28.11
69324;DHT22;56470;47.350;8.718;2022-08-04T10:05:13;39.27;26.51
69324;DHT22;56470;47.350;8.718;2022-08-04T10:13:11;38.36;27.27
69324;DHT22;56470;47.350;8.718;2022-08-04T10:15:50;37.96;27.24
69324;DHT22;56470;47.350;8.718;2022-08-04T10:21:18;38.61;26.44
69324;DHT22;56470;47.350;8.718;2022-08-04T10:24:10;38.24;26.59
69324;DHT22;56470;47.350;8.718;2022-08-04T10:26:51;38.31;26.15
69324;DHT22;56470;47.350;8.718;2022-08-04T10:29:23;38.70;25.84
69324;DHT22;56470;47.350;8.718;2022-08-04T10:31:59;38.84;25.67
69324;DHT22;56470;47.350;8.718;2022-08-04T10:34:35;38.95;25.52
69324;DHT22;56470;47.350;8.718;2022-08-04T10:37:19;38.51;25.70
69324;DHT22;56470;47.350;8.718;2022-08-04T10:39:53;38.81;25.59
69324;DHT22;56470;47.350;8.718;2022-08-04T10:42:40;38.85;25.09
69324;DHT22;56470;47.350;8.718;2022-08-04T10:45:17;38.21;25.59
69324;DHT22;56470;47.350;8.718;2022-08-04T10:47:56;37.84;25.85
69324;DHT22;56470;47.350;8.718;2022-08-04T10:50:24;38.08;25.77
69324;DHT22;56470;47.350;8.718;2022-08-04T10:52:58;38.13;25.65
69324;DHT22;56470;47.350;8.718;2022-08-04T10:55:31;37.14;26.77
69324;DHT22;56470;47.350;8.718;2022-08-04T10:58:04;36.86;27.20
69324;DHT22;56470;47.350;8.718;2022-08-04T11:00:32;37.12;26.78
69324;DHT22;56470;47.350;8.718;2022-08-04T11:05:38;37.64;26.05
69324;DHT22;56470;47.350;8.718;2022-08-04T11:08:08;37.24;26.18
69324;DHT22;56470;47.350;8.718;2022-08-04T11:10:41;37.34;25.83
69324;DHT22;56470;47.350;8.718;2022-08-04T11:13:10;37.82;25.21
69324;DHT22;56470;47.350;8.718;2022-08-04T11:15:42;37.84;24.77
69324;DHT22;56470;47.350;8.718;2022-08-04T11:18:14;37.76;25.26
69324;DHT22;56470;47.350;8.718;2022-08-04T11:21:24;37.60;25.56
69324;DHT22;56470;47.350;8.718;2022-08-04T11:24:04;37.34;25.79
69324;DHT22;56470;47.350;8.718;2022-08-04T11:26:50;37.31;26.51
69324;DHT22;56470;47.350;8.718;2022-08-04T11:29:23;37.62;26.17
69324;DHT22;56470;47.350;8.718;2022-08-04T11:31:49;37.69;26.05
69324;DHT22;56470;47.350;8.718;2022-08-04T11:34:20;37.86;25.20
69324;DHT22;56470;47.350;8.718;2022-08-04T11:37:22;37.88;25.26
69324;DHT22;56470;47.350;8.718;2022-08-04T11:39:58;37.53;25.20
69324;DHT22;56470;47.350;8.718;2022-08-04T11:42:29;37.45;25.48
69324;DHT22;56470;47.350;8.718;2022-08-04T11:47:41;36.89;26.28
69324;DHT22;56470;47.350;8.718;2022-08-04T11:50:21;37.16;26.00
69324;DHT22;56470;47.350;8.718;2022-08-04T11:52:51;36.82;26.35
69324;DHT22;56470;47.350;8.718;2022-08-04T11:55:18;37.03;25.64
69324;DHT22;56470;47.350;8.718;2022-08-04T11:57:46;37.34;25.46
69324;DHT22;56470;47.350;8.718;2022-08-04T12:00:14;37.44;25.32
69324;DHT22;56470;47.350;8.718;2022-08-04T12:03:03;37.27;25.41
69324;DHT22;56470;47.350;8.718;2022-08-04T12:05:34;37.75;25.03
69324;DHT22;56470;47.350;8.718;2022-08-04T12:08:31;37.67;25.14
69324;DHT22;56470;47.350;8.718;2022-08-04T12:11:28;37.20;25.54
69324;DHT22;56470;47.350;8.718;2022-08-04T12:17:03;37.23;25.01
69324;DHT22;56470;47.350;8.718;2022-08-04T12:19:47;37.09;25.25
69324;DHT22;56470;47.350;8.718;2022-08-04T12:22:17;36.56;25.48
69324;DHT22;56470;47.350;8.718;2022-08-04T12:25:14;36.24;25.79
69324;DHT22;56470;47.350;8.718;2022-08-04T12:27:52;35.88;26.33
69324;DHT22;56470;47.350;8.718;2022-08-04T12:30:19;35.86;26.47
69324;DHT22;56470;47.350;8.718;2022-08-04T12:33:14;35.73;26.67
69324;DHT22;56470;47.350;8.718;2022-08-04T12:35:47;35.64;26.76
69324;DHT22;56470;47.350;8.718;2022-08-04T12:38:19;35.51;26.56
69324;DHT22;56470;47.350;8.718;2022-08-04T12:40:57;35.26;26.85
69324;DHT22;56470;47.350;8.718;2022-08-04T12:43:28;35.03;27.26
69324;DHT22;56470;47.350;8.718;2022-08-04T12:46:00;35.04;27.13
69324;DHT22;56470;47.350;8.718;2022-08-04T12:48:27;34.99;27.36
69324;DHT22;56470;47.350;8.718;2022-08-04T12:50:55;34.86;27.53
69324;DHT22;56470;47.350;8.718;2022-08-04T12:53:25;34.94;27.55
69324;DHT22;56470;47.350;8.718;2022-08-04T12:55:53;34.89;27.58
69324;DHT22;56470;47.350;8.718;2022-08-04T12:58:22;34.99;27.61
69324;DHT22;56470;47.350;8.718;2022-08-04T13:01:04;34.82;27.88
69324;DHT22;56470;47.350;8.718;2022-08-04T13:03:37;34.70;27.91
69324;DHT22;56470;47.350;8.718;2022-08-04T13:06:03;34.68;27.88
69324;DHT22;56470;47.350;8.718;2022-08-04T13:08:36;34.73;27.84
69324;DHT22;56470;47.350;8.718;2022-08-04T13:11:02;34.72;28.12
69324;DHT22;56470;47.350;8.718;2022-08-04T13:13:32;34.58;28.00
69324;DHT22;56470;47.350;8.718;2022-08-04T13:16:00;34.49;28.24
69324;DHT22;56470;47.350;8.718;2022-08-04T13:18:28;34.58;28.28
69324;DHT22;56470;47.350;8.718;2022-08-04T13:20:54;34.32;28.53
69324;DHT22;56470;47.350;8.718;2022-08-04T13:23:24;34.25;28.68
69324;DHT22;56470;47.350;8.718;2022-08-04T13:25:52;34.38;28.65
69324;DHT22;56470;47.350;8.718;2022-08-04T13:28:24;34.41;28.57
69324;DHT22;56470;47.350;8.718;2022-08-04T13:30:56;34.44;28.41
69324;DHT22;56470;47.350;8.718;2022-08-04T13:33:28;34.47;28.19
69324;DHT22;56470;47.350;8.718;2022-08-04T13:35:55;34.44;28.27
69324;DHT22;56470;47.350;8.718;2022-08-04T13:38:23;34.49;28.29
69324;DHT22;56470;47.350;8.718;2022-08-04T13:40:50;34.62;28.09
69324;DHT22;56470;47.350;8.718;2022-08-04T13:43:25;34.60;28.20
69324;DHT22;56470;47.350;8.718;2022-08-04T13:45:58;34.70;28.04
69324;DHT22;56470;47.350;8.718;2022-08-04T13:48:25;34.72;27.80
69324;DHT22;56470;47.350;8.718;2022-08-04T13:50:57;34.72;27.90
69324;DHT22;56470;47.350;8.718;2022-08-04T13:53:30;34.83;27.91
69324;DHT22;56470;47.350;8.718;2022-08-04T13:55:56;34.99;27.85
69324;DHT22;56470;47.350;8.718;2022-08-04T13:58:24;35.07;27.64
69324;DHT22;56470;47.350;8.718;2022-08-04T14:00:58;35.08;27.37
69324;DHT22;56470;47.350;8.718;2022-08-04T14:03:56;35.02;27.38
69324;DHT22;56470;47.350;8.718;2022-08-04T14:06:23;34.97;26.84
69324;DHT22;56470;47.350;8.718;2022-08-04T14:11:17;35.07;26.91
69324;DHT22;56470;47.350;8.718;2022-08-04T14:13:43;35.03;26.79
69324;DHT22;56470;47.350;8.718;2022-08-04T14:16:19;35.03;27.02
69324;DHT22;56470;47.350;8.718;2022-08-04T14:18:45;35.14;26.36
69324;DHT22;56470;47.350;8.718;2022-08-04T14:21:15;34.97;26.01
69324;DHT22;56470;47.350;8.718;2022-08-04T14:23:52;35.10;25.98
69324;DHT22;56470;47.350;8.718;2022-08-04T14:26:24;35.10;26.10
69324;DHT22;56470;47.350;8.718;2022-08-04T14:28:50;35.21;26.08
69324;DHT22;56470;47.350;8.718;2022-08-04T14:31:21;35.30;26.03
69324;DHT22;56470;47.350;8.718;2022-08-04T14:33:48;35.24;26.16
69324;DHT22;56470;47.350;8.718;2022-08-04T14:36:15;35.26;26.38
69324;DHT22;56470;47.350;8.718;2022-08-04T14:38:49;35.18;26.40
69324;DHT22;56470;47.350;8.718;2022-08-04T14:41:16;35.23;26.19
69324;DHT22;56470;47.350;8.718;2022-08-04T14:46:10;35.27;26.82
69324;DHT22;56470;47.350;8.718;2022-08-04T14:48:35;35.31;26.88
69324;DHT22;56470;47.350;8.718;2022-08-04T14:51:01;35.23;26.62
69324;DHT22;56470;47.350;8.718;2022-08-04T14:53:27;35.15;26.46
69324;DHT22;56470;47.350;8.718;2022-08-04T14:55:57;35.06;26.58
69324;DHT22;56470;47.350;8.718;2022-08-04T14:58:25;35.18;26.59
69324;DHT22;56470;47.350;8.718;2022-08-04T15:00:56;35.20;26.73
69324;DHT22;56470;47.350;8.718;2022-08-04T15:03:22;35.17;26.53
69324;DHT22;56470;47.350;8.718;2022-08-04T15:05:49;35.23;26.16
69324;DHT22;56470;47.350;8.718;2022-08-04T15:08:14;35.14;26.05
69324;DHT22;56470;47.350;8.718;2022-08-04T15:10:41;35.18;26.06
69324;DHT22;56470;47.350;8.718;2022-08-04T15:13:07;35.15;25.90
69324;DHT22;56470;47.350;8.718;2022-08-04T15:15:33;35.08;26.17
69324;DHT22;56470;47.350;8.718;2022-08-04T15:17:59;35.06;26.53
69324;DHT22;56470;47.350;8.718;2022-08-04T15:20:25;35.07;26.61
69324;DHT22;56470;47.350;8.718;2022-08-04T15:22:51;34.97;26.70
69324;DHT22;56470;47.350;8.718;2022-08-04T15:25:17;34.97;26.72
69324;DHT22;56470;47.350;8.718;2022-08-04T15:27:46;34.97;26.42
69324;DHT22;56470;47.350;8.718;2022-08-04T15:30:13;35.00;26.36
69324;DHT22;56470;47.350;8.718;2022-08-04T15:32:45;34.90;26.74
69324;DHT22;56470;47.350;8.718;2022-08-04T15:35:16;34.76;27.01
69324;DHT22;56470;47.350;8.718;2022-08-04T15:37:56;34.60;26.30
69324;DHT22;56470;47.350;8.718;2022-08-04T15:40:41;34.62;26.62
69324;DHT22;56470;47.350;8.718;2022-08-04T15:45:56;34.72;25.23
69324;DHT22;56470;47.350;8.718;2022-08-04T15:48:27;34.83;25.76
69324;DHT22;56470;47.350;8.718;2022-08-04T15:54:19;34.90;25.30
69324;DHT22;56470;47.350;8.718;2022-08-04T15:56:43;34.97;25.21
69324;DHT22;56470;47.350;8.718;2022-08-04T15:59:08;34.99;25.15
69324;DHT22;56470;47.350;8.718;2022-08-04T16:01:33;34.93;25.25
69324;DHT22;56470;47.350;8.718;2022-08-04T16:03:59;35.00;26.19
69324;DHT22;56470;47.350;8.718;2022-08-04T16:21:52;35.06;24.89
69324;DHT22;56470;47.350;8.718;2022-08-04T16:26:53;34.83;26.30
69324;DHT22;56470;47.350;8.718;2022-08-04T16:34:46;34.58;27.59
69324;DHT22;56470;47.350;8.718;2022-08-04T16:37:15;34.52;27.31
69324;DHT22;56470;47.350;8.718;2022-08-04T16:39:42;34.51;27.62
69324;DHT22;56470;47.350;8.718;2022-08-04T16:45:21;34.62;26.99
69324;DHT22;56470;47.350;8.718;2022-08-04T16:50:16;34.65;26.49
69324;DHT22;56470;47.350;8.718;2022-08-04T16:52:48;34.60;26.48
69324;DHT22;56470;47.350;8.718;2022-08-04T16:55:17;34.49;27.92
69324;DHT22;56470;47.350;8.718;2022-08-04T16:57:47;34.38;28.62
69324;DHT22;56470;47.350;8.718;2022-08-04T17:00:13;34.31;28.80
69324;DHT22;56470;47.350;8.718;2022-08-04T17:02:39;34.29;28.95
69324;DHT22;56470;47.350;8.718;2022-08-04T17:05:05;34.14;29.07
69324;DHT22;56470;47.350;8.718;2022-08-04T17:07:55;34.10;29.22
69324;DHT22;56470;47.350;8.718;2022-08-04T17:10:42;34.01;29.51
69324;DHT22;56470;47.350;8.718;2022-08-04T17:15:52;33.92;29.53
69324;DHT22;56470;47.350;8.718;2022-08-04T17:18:21;33.83;29.38
69324;DHT22;56470;47.350;8.718;2022-08-04T17:20:47;33.76;29.53
69324;DHT22;56470;47.350;8.718;2022-08-04T17:26:04;33.65;30.26
69324;DHT22;56470;47.350;8.718;2022-08-04T17:28:30;33.55;30.17
69324;DHT22;56470;47.350;8.718;2022-08-04T17:30:57;33.45;30.69
69324;DHT22;56470;47.350;8.718;2022-08-04T17:33:24;33.22;31.02
69324;DHT22;56470;47.350;8.718;2022-08-04T17:35:50;33.19;31.12
69324;DHT22;56470;47.350;8.718;2022-08-04T17:38:16;33.15;31.20
69324;DHT22;56470;47.350;8.718;2022-08-04T17:40:51;33.18;30.92
69324;DHT22;56470;47.350;8.718;2022-08-04T17:43:17;33.18;30.87
69324;DHT22;56470;47.350;8.718;2022-08-04T17:45:43;33.18;31.16
69324;DHT22;56470;47.350;8.718;2022-08-04T17:48:18;33.11;31.50
69324;DHT22;56470;47.350;8.718;2022-08-04T17:50:43;33.08;31.71
69324;DHT22;56470;47.350;8.718;2022-08-04T17:53:09;33.04;31.95
69324;DHT22;56470;47.350;8.718;2022-08-04T17:55:39;32.99;32.33
69324;DHT22;56470;47.350;8.718;2022-08-04T17:58:21;32.94;32.26
69324;DHT22;56470;47.350;8.718;2022-08-04T18:00:48;32.90;32.43
69324;DHT22;56470;47.350;8.718;2022-08-04T18:03:23;32.83;32.76
69324;DHT22;56470;47.350;8.718;2022-08-04T18:05:48;32.77;33.26
69324;DHT22;56470;47.350;8.718;2022-08-04T18:08:14;32.70;33.33
69324;DHT22;56470;47.350;8.718;2022-08-04T18:10:41;32.66;33.38
69324;DHT22;56470;47.350;8.718;2022-08-04T18:13:08;32.57;33.40
69324;DHT22;56470;47.350;8.718;2022-08-04T18:15:34;32.52;33.52
69324;DHT22;56470;47.350;8.718;2022-08-04T18:18:14;32.46;33.98
69324;DHT22;56470;47.350;8.718;2022-08-04T18:20:39;32.42;34.48
69324;DHT22;56470;47.350;8.718;2022-08-04T18:23:05;32.39;34.90
69324;DHT22;56470;47.350;8.718;2022-08-04T18:25:30;32.32;35.27
69324;DHT22;56470;47.350;8.718;2022-08-04T18:27:55;32.20;35.58
69324;DHT22;56470;47.350;8.718;2022-08-04T18:30:23;32.14;35.64
69324;DHT22;56470;47.350;8.718;2022-08-04T18:32:49;32.05;35.55
69324;DHT22;56470;47.350;8.718;2022-08-04T18:35:15;32.03;35.40
69324;DHT22;56470;47.350;8.718;2022-08-04T18:37:41;31.95;35.42
69324;DHT22;56470;47.350;8.718;2022-08-04T18:40:07;31.90;35.54
69324;DHT22;56470;47.350;8.718;2022-08-04T18:42:33;31.83;35.81
69324;DHT22;56470;47.350;8.718;2022-08-04T18:44:59;31.76;35.98
69324;DHT22;56470;47.350;8.718;2022-08-04T18:47:25;31.70;35.91
69324;DHT22;56470;47.350;8.718;2022-08-04T18:49:51;31.62;36.27
69324;DHT22;56470;47.350;8.718;2022-08-04T18:52:16;31.54;36.22
69324;DHT22;56470;47.350;8.718;2022-08-04T18:54:42;31.49;36.38
69324;DHT22;56470;47.350;8.718;2022-08-04T18:57:07;31.46;36.47
69324;DHT22;56470;47.350;8.718;2022-08-04T18:59:33;31.39;36.99
69324;DHT22;56470;47.350;8.718;2022-08-04T19:01:58;31.23;37.42
69324;DHT22;56470;47.350;8.718;2022-08-04T19:04:23;31.05;38.49
69324;DHT22;56470;47.350;8.718;2022-08-04T19:06:48;30.91;39.05
69324;DHT22;56470;47.350;8.718;2022-08-04T19:09:14;30.74;39.74
69324;DHT22;56470;47.350;8.718;2022-08-04T19:11:39;30.44;41.39
69324;DHT22;56470;47.350;8.718;2022-08-04T19:14:04;30.24;41.72
69324;DHT22;56470;47.350;8.718;2022-08-04T19:16:31;30.12;42.22
69324;DHT22;56470;47.350;8.718;2022-08-04T19:18:58;29.91;42.63
69324;DHT22;56470;47.350;8.718;2022-08-04T19:21:25;29.78;42.92
69324;DHT22;56470;47.350;8.718;2022-08-04T19:23:51;29.62;43.94
69324;DHT22;56470;47.350;8.718;2022-08-04T19:26:17;29.56;44.08